createdAt,value
2022-10-29T00:01:49.997Z,98536.28
2022-10-29T00:06:51.312Z,98545.47
2022-10-29T00:11:52.533Z,98536.94
2022-10-29T00:16:53.775Z,98538.19
2022-10-29T00:21:54.992Z,98537.22
2022-10-29T00:26:56.192Z,98542.50
2022-10-29T00:31:57.429Z,98542.03
2022-10-29T00:36:58.656Z,98542.03
2022-10-29T00:41:59.949Z,98536.47
2022-10-29T00:47:02.575Z,98547.34
2022-10-29T00:52:03.786Z,98550.63
2022-10-29T00:57:06.262Z,98552.19
2022-10-29T01:02:07.590Z,98554.91
2022-10-29T01:07:08.901Z,98539.63
2022-10-29T01:12:10.158Z,98554.03
2022-10-29T01:17:11.456Z,98552.59
2022-10-29T01:22:12.669Z,98551.31
2022-10-29T01:27:13.883Z,98552.31
2022-10-29T01:32:15.108Z,98546.47
2022-10-29T01:37:16.341Z,98548.94
2022-10-29T01:42:17.691Z,98553.72
2022-10-29T01:47:19.049Z,98551.03
2022-10-29T01:52:20.308Z,98545.94
2022-10-29T01:57:21.548Z,98545.34
2022-10-29T02:02:22.797Z,98537.84
2022-10-29T02:07:24.028Z,98532.28
2022-10-29T02:12:25.239Z,98536.22
2022-10-29T02:17:26.453Z,98545.91
2022-10-29T02:22:27.692Z,98535.28
2022-10-29T02:27:28.916Z,98528.50
2022-10-29T02:32:32.496Z,98516.22
2022-10-29T02:37:33.781Z,98512.28
2022-10-29T02:42:34.964Z,98512.09
2022-10-29T02:47:36.175Z,98502.44
2022-10-29T02:52:37.385Z,98498.94
2022-10-29T02:57:38.598Z,98497.16
2022-10-29T03:02:39.872Z,98508.78
2022-10-29T03:07:41.126Z,98511.31
2022-10-29T03:12:42.351Z,98511.09
2022-10-29T03:17:43.758Z,98503.91
2022-10-29T03:22:44.995Z,98497.09
2022-10-29T03:27:46.243Z,98508.72
2022-10-29T03:32:47.454Z,98505.47
2022-10-29T03:37:48.746Z,98508.25
2022-10-29T03:42:51.082Z,98503.88
2022-10-29T03:47:52.432Z,98515.22
2022-10-29T03:52:53.806Z,98519.59
2022-10-29T03:57:55.341Z,98510.00
2022-10-29T04:02:57.224Z,98525.66
2022-10-29T04:07:58.664Z,98521.38
2022-10-29T04:12:59.877Z,98525.00
2022-10-29T04:18:01.106Z,98525.69
2022-10-29T04:28:43.128Z,98527.34
2022-10-29T04:33:44.857Z,98511.94
2022-10-29T04:38:46.108Z,98521.59
2022-10-29T04:43:47.329Z,98527.31
2022-10-29T04:48:48.679Z,98525.31
2022-10-29T04:53:49.928Z,98518.31
2022-10-29T04:58:51.385Z,98524.69
2022-10-29T05:03:55.622Z,98520.56
2022-10-29T05:09:00.190Z,98518.50
2022-10-29T05:14:01.448Z,98514.59
2022-10-29T05:19:03.721Z,98514.81
2022-10-29T05:24:04.982Z,98517.63
2022-10-29T05:29:06.209Z,98513.00
2022-10-29T05:34:07.513Z,98515.22
2022-10-29T05:39:08.777Z,98522.63
2022-10-29T05:44:09.982Z,98521.84
2022-10-29T05:49:12.622Z,98528.38
2022-10-29T05:54:13.937Z,98527.59
2022-10-29T05:59:15.141Z,98531.00
2022-10-29T06:04:16.403Z,98534.38
2022-10-29T06:09:17.745Z,98538.34
2022-10-29T06:14:19.005Z,98551.72
2022-10-29T06:19:20.241Z,98553.34
2022-10-29T06:24:21.453Z,98565.28
2022-10-29T06:29:22.668Z,98561.72
2022-10-29T06:34:23.870Z,98559.13
2022-10-29T06:39:25.073Z,98564.53
2022-10-29T06:44:26.302Z,98568.94
2022-10-29T06:49:27.589Z,98571.38
2022-10-29T06:54:28.840Z,98587.19
2022-10-29T06:59:30.052Z,98596.28
2022-10-29T07:04:31.297Z,98585.66
2022-10-29T07:09:32.521Z,98585.09
2022-10-29T07:14:33.731Z,98585.59
2022-10-29T07:19:35.061Z,98582.25
2022-10-29T07:24:36.454Z,98594.50
2022-10-29T07:29:37.709Z,98615.09
2022-10-29T07:34:38.925Z,98596.56
2022-10-29T07:39:40.161Z,98586.19
2022-10-29T07:44:41.412Z,98581.94
2022-10-29T07:49:42.640Z,98582.19
2022-10-29T07:54:43.856Z,98582.28
2022-10-29T07:59:49.768Z,98582.56
2022-10-29T08:04:50.984Z,98586.13
2022-10-29T08:09:52.201Z,98599.44
2022-10-29T08:14:53.408Z,98600.88
2022-10-29T08:19:54.622Z,98601.53
2022-10-29T08:24:55.839Z,98592.28
2022-10-29T08:29:57.056Z,98595.94
2022-10-29T08:34:58.477Z,98595.59
2022-10-29T08:39:59.707Z,98604.53
2022-10-29T08:45:01.012Z,98591.09
2022-10-29T08:50:02.199Z,98596.25
2022-10-29T08:55:03.446Z,98597.50
2022-10-29T09:00:04.848Z,98591.44
2022-10-29T09:05:06.120Z,98588.06
2022-10-29T09:10:07.316Z,98582.66
2022-10-29T09:15:08.532Z,98587.41
2022-10-29T09:20:09.798Z,98585.97
2022-10-29T09:25:11.021Z,98581.38
2022-10-29T09:30:12.242Z,98575.53
2022-10-29T09:35:16.529Z,98574.00
2022-10-29T09:40:17.800Z,98565.53
2022-10-29T09:45:19.053Z,98569.16
2022-10-29T09:50:20.517Z,98567.91
2022-10-29T09:55:21.814Z,98570.72
2022-10-29T10:00:23.028Z,98563.19
2022-10-29T10:05:24.219Z,98567.38
2022-10-29T10:10:25.425Z,98556.44
2022-10-29T10:15:26.756Z,98549.63
2022-10-29T10:20:28.201Z,98531.06
2022-10-29T10:25:29.468Z,98514.06
2022-10-29T10:30:30.709Z,98504.22
2022-10-29T10:35:31.988Z,98497.81
2022-10-29T10:40:33.245Z,98487.28
2022-10-29T10:45:34.453Z,98476.28
2022-10-29T10:50:35.665Z,98464.97
2022-10-29T10:55:37.964Z,98452.41
2022-10-29T11:00:39.267Z,98445.72
2022-10-29T11:05:40.550Z,98426.25
2022-10-29T11:10:41.780Z,98432.69
2022-10-29T11:15:42.992Z,98420.06
2022-10-29T11:20:44.196Z,98411.88
2022-10-29T11:25:45.517Z,98415.81
2022-10-29T11:30:46.724Z,98405.84
2022-10-29T11:35:47.969Z,98389.38
2022-10-29T11:40:49.214Z,98386.53
2022-10-29T11:45:50.413Z,98385.63
2022-10-29T11:50:51.637Z,98384.06
2022-10-29T11:55:52.840Z,98371.66
2022-10-29T12:00:54.067Z,98361.50
2022-10-29T12:05:55.293Z,98359.53
2022-10-29T12:10:56.501Z,98355.06
2022-10-29T12:15:57.708Z,98347.28
2022-10-29T12:20:58.914Z,98344.66
2022-10-29T12:26:00.211Z,98344.56
2022-10-29T12:31:01.441Z,98337.59
2022-10-29T12:41:08.773Z,98326.19
2022-10-29T12:46:25.283Z,98330.06
2022-10-29T12:51:26.506Z,98329.84
2022-10-29T12:56:27.721Z,98314.69
2022-10-29T13:02:09.954Z,98296.28
2022-10-29T13:06:52.443Z,98290.69
2022-10-29T13:11:53.651Z,98279.66
2022-10-29T13:16:54.866Z,98270.59
2022-10-29T13:21:56.503Z,98267.88
2022-10-29T13:26:57.769Z,98283.41
2022-10-29T13:32:04.397Z,98276.97
2022-10-29T13:37:06.001Z,98259.44
2022-10-29T13:42:07.241Z,98259.19
2022-10-29T13:47:08.449Z,98252.63
2022-10-29T13:52:09.671Z,98259.50
2022-10-29T13:57:10.896Z,98263.06
2022-10-29T14:02:12.259Z,98254.09
2022-10-29T14:07:13.556Z,98253.13
2022-10-29T14:12:14.857Z,98255.38
2022-10-29T14:17:16.133Z,98256.75
2022-10-29T14:22:17.360Z,98252.16
2022-10-29T14:27:18.557Z,98246.03
2022-10-29T14:32:19.849Z,98249.63
2022-10-29T14:37:21.064Z,98246.50
2022-10-29T14:42:22.265Z,98257.53
2022-10-29T14:47:23.481Z,98254.84
2022-10-29T14:52:24.704Z,98257.63
2022-10-29T14:57:25.924Z,98258.66
2022-10-29T15:02:38.009Z,98269.78
2022-10-29T15:07:40.316Z,98280.47
2022-10-29T15:12:41.558Z,98272.19
2022-10-29T15:17:42.811Z,98284.16
2022-10-29T15:22:44.128Z,98277.25
2022-10-29T15:27:45.338Z,98284.69
2022-10-29T15:32:46.541Z,98288.63
2022-10-29T15:37:47.876Z,98297.59
2022-10-29T15:42:49.483Z,98303.47
2022-10-29T15:47:50.724Z,98298.69
2022-10-29T15:52:51.941Z,98305.91
2022-10-29T15:57:53.255Z,98300.91
2022-10-29T16:02:54.699Z,98315.75
2022-10-29T16:07:56.096Z,98319.94
2022-10-29T16:12:57.729Z,98312.19
2022-10-29T16:17:59.425Z,98311.13
2022-10-29T16:23:00.880Z,98301.03
2022-10-29T16:28:02.100Z,98301.56
2022-10-29T16:33:03.309Z,98314.25
2022-10-29T16:38:04.524Z,98302.34
2022-10-29T16:43:05.719Z,98313.56
2022-10-29T16:48:06.946Z,98317.56
2022-10-29T16:53:08.913Z,98320.19
2022-10-29T16:58:10.185Z,98330.47
2022-10-29T17:03:12.112Z,98329.56
2022-10-29T17:08:13.870Z,98332.47
2022-10-29T17:13:15.165Z,98337.13
2022-10-29T17:18:16.392Z,98334.56
2022-10-29T17:23:17.635Z,98352.38
2022-10-29T17:28:18.863Z,98348.31
2022-10-29T17:33:20.090Z,98349.47
2022-10-29T17:38:21.365Z,98350.44
2022-10-29T17:43:22.611Z,98355.75
2022-10-29T17:48:25.100Z,98355.91
2022-10-29T17:53:26.588Z,98356.41
2022-10-29T17:58:27.853Z,98360.56
2022-10-29T18:03:29.075Z,98364.34
2022-10-29T18:08:30.308Z,98360.22
2022-10-29T18:13:31.538Z,98359.13
2022-10-29T18:18:38.397Z,98355.94
2022-10-29T18:23:49.648Z,98353.97
2022-10-29T18:28:50.916Z,98356.09
2022-10-29T18:33:52.131Z,98349.38
2022-10-29T18:38:53.615Z,98343.09
2022-10-29T18:43:55.348Z,98344.03
2022-10-29T18:48:56.557Z,98333.78
2022-10-29T18:53:57.919Z,98333.91
2022-10-29T18:58:59.185Z,98340.22
2022-10-29T19:04:00.396Z,98331.56
2022-10-29T19:09:01.629Z,98324.97
2022-10-29T19:14:02.817Z,98336.78
2022-10-29T19:24:10.226Z,98325.34
2022-10-29T19:29:11.716Z,98336.16
2022-10-29T19:34:13.048Z,98336.75
2022-10-29T19:39:14.330Z,98335.28
2022-10-29T19:44:15.573Z,98335.13
2022-10-29T19:49:16.788Z,98335.72
2022-10-29T19:54:18.057Z,98341.75
2022-10-29T19:59:19.276Z,98348.22
2022-10-29T20:04:20.481Z,98340.97
2022-10-29T20:09:21.702Z,98344.69
2022-10-29T20:14:27.990Z,98336.75
2022-10-29T20:19:30.244Z,98339.22
2022-10-29T20:24:31.438Z,98342.59
2022-10-29T20:29:32.908Z,98339.84
2022-10-29T20:34:34.161Z,98338.63
2022-10-29T20:39:35.401Z,98344.16
2022-10-29T20:44:36.632Z,98348.75
2022-10-29T20:49:37.837Z,98346.00
2022-10-29T20:54:39.058Z,98346.25
2022-10-29T20:59:40.386Z,98346.00
2022-10-29T21:04:41.630Z,98353.78
2022-10-29T21:09:42.867Z,98355.59
2022-10-29T21:14:44.096Z,98351.13
2022-10-29T21:19:45.329Z,98351.44
2022-10-29T21:24:46.567Z,98349.59
2022-10-29T21:29:47.818Z,98348.91
2022-10-29T21:34:49.060Z,98346.06
2022-10-29T21:39:50.360Z,98344.47
2022-10-29T21:44:51.853Z,98336.63
2022-10-29T21:49:53.466Z,98337.84
2022-10-29T21:54:54.716Z,98332.63
2022-10-29T21:59:55.941Z,98330.81
2022-10-29T22:04:57.170Z,98337.00
2022-10-29T22:09:58.426Z,98336.78
2022-10-29T22:14:59.781Z,98334.63
2022-10-29T22:20:01.006Z,98331.41
2022-10-29T22:25:02.232Z,98330.31
2022-10-29T22:30:03.517Z,98323.88
2022-10-29T22:35:04.757Z,98322.94
2022-10-29T22:40:06.102Z,98319.94
2022-10-29T22:45:07.361Z,98305.31
2022-10-29T22:50:08.708Z,98302.06
2022-10-29T22:55:10.043Z,98294.50
2022-10-29T23:00:11.401Z,98303.84
2022-10-29T23:05:12.713Z,98309.97
2022-10-29T23:10:14.066Z,98310.34
2022-10-29T23:15:15.343Z,98305.06
2022-10-29T23:20:16.624Z,98305.50
2022-10-29T23:25:17.878Z,98309.50
2022-10-29T23:30:19.129Z,98307.28
2022-10-29T23:35:20.445Z,98305.19
2022-10-29T23:40:21.736Z,98302.66
2022-10-29T23:45:23.007Z,98296.75
2022-10-29T23:50:24.238Z,98297.16
2022-10-29T23:55:25.557Z,98298.50
